EDT,Max TemperatureF,Mean TemperatureF,Min TemperatureF,Max Dew PointF,MeanDew PointF,Min DewpointF,Max Humidity, Mean Humidity, Min Humidity, Max Sea Level PressureIn, Mean Sea Level PressureIn, Min Sea Level PressureIn, Max VisibilityMiles, Mean VisibilityMiles, Min VisibilityMiles, Max Wind SpeedMPH, Mean Wind SpeedMPH, Max Gust SpeedMPH,PrecipitationIn, CloudCover, Events, WindDirDegrees
2012-10-1,58,54,49,50,48,46,93,83,72,29.93,29.77,29.68,10,10,10,17,8,23,T,8,Rain,232
2012-10-2,60,56,52,57,54,50,100,90,80,30.05,30.00,29.92,10,5,1,9,1,23,0.14,7,Rain,238
2012-10-3,70,64,57,67,62,57,100,94,87,30.14,30.06,29.99,10,2,0,9,1,21,0.04,8,Fog-Rain,33
2012-10-4,68,60,52,66,61,52,100,97,93,30.16,30.08,30.01,10,3,0,7,1,25,0.19,5,Fog-Rain,276
2012-10-5,73,61,48,58,53,48,100,75,49,30.06,29.99,29.87,10,4,0,10,2,20,0.00,3,Fog,233
2012-10-6,70,57,43,57,51,36,100,81,61,29.94,29.82,29.68,10,5,0,18,6,28,0.01,4,Fog-Rain,276
2012-10-7,50,45,40,43,39,34,100,81,61,30.06,30.02,29.94,10,9,4,14,4,23,0.17,5,Rain,257
2012-10-8,50,43,36,43,39,36,93,77,61,30.28,30.17,30.05,10,10,8,10,3,16,0.00,5,,275
2012-10-9,52,45,37,46,42,36,100,89,77,30.26,30.20,30.08,10,9,0,10,4,15,0.00,8,Fog,68
2012-10-10,56,49,42,54,48,38,100,88,76,30.09,29.89,29.73,10,7,1,24,6,36,0.15,7,Rain,144
2012-10-11,52,44,35,37,34,31,92,68,44,30.12,30.05,29.86,10,10,9,17,9,23,T,4,Rain,272
2012-10-12,50,40,29,39,33,20,92,69,45,30.38,30.11,29.99,10,9,2,21,8,26,0.05,5,Rain,298
2012-10-13,47,36,24,26,23,21,92,65,37,30.47,30.39,30.24,10,10,10,16,6,23,T,1,,231
2012-10-14,62,53,43,51,45,36,93,80,67,30.16,30.05,29.87,10,7,1,23,8,38,0.59,6,Rain,201
2012-10-15,64,57,50,59,55,45,97,86,75,29.85,29.67,29.58,10,8,2,16,9,24,0.39,7,Rain,210
2012-10-16,50,44,37,43,34,31,80,68,56,29.89,29.74,29.62,10,10,10,25,13,38,T,4,,294
2012-10-17,59,47,35,40,35,31,92,68,43,29.97,29.93,29.89,10,10,10,10,3,12,0.00,0,,258
2012-10-18,64,49,33,49,38,32,100,72,44,30.04,30.00,29.95,10,6,0,17,6,24,0.00,1,Fog,145
2012-10-19,64,59,54,63,57,48,100,89,77,30.00,29.81,29.64,10,5,0,14,6,23,1.33,8,Fog-Rain,116
2012-10-20,68,57,45,61,52,38,100,73,45,29.73,29.65,29.56,10,7,0,17,6,23,0.00,3,Fog,214
2012-10-21,57,50,42,41,39,36,83,67,51,29.91,29.85,29.73,10,10,10,23,11,35,T,5,,270
2012-10-22,60,53,45,43,42,39,80,66,51,30.03,29.96,29.90,10,10,10,25,10,35,0.00,4,,286
2012-10-23,57,48,38,49,44,37,93,75,57,30.11,30.07,30.04,10,8,3,10,2,14,0.07,5,Rain,257
2012-10-24,54,51,47,49,45,38,93,77,61,30.19,30.13,30.08,10,7,2,6,1,10,0.00,8,,51
2012-10-25,60,55,49,49,47,43,86,76,66,30.25,30.20,30.17,10,10,9,10,2,14,0.00,7,,179
2012-10-26,61,57,52,52,51,50,96,84,72,30.22,30.15,30.09,10,8,6,12,4,14,0.00,7,,200
2012-10-27,56,53,50,52,50,48,96,90,83,30.08,30.00,29.96,10,7,3,8,2,10,0.00,7,,103
2012-10-28,55,52,49,52,44,39,96,80,63,29.98,29.88,29.74,10,9,4,17,9,25,0.00,6,,58
2012-10-29,62,55,48,57,52,44,93,87,80,29.72,29.24,28.98,10,5,1,35,17,58,0.95,8,Rain,68
2012-10-30,60,56,51,54,50,45,89,73,57,29.48,29.33,29.14,10,8,2,29,13,40,0.29,7,Rain,126
2012-10-31,54,47,40,49,39,34,89,75,60,29.52,29.46,29.38,10,10,9,17,7,28,0.03,7,Rain,201